sensor_id;sensor_type;location;lat;lon;timestamp;P1;durP1;ratioP1;P2;durP2;ratioP2
26516;SDS011;14190;51.342;6.338;2023-04-15T00:02:16;11.55;;;6.33;;
26516;SDS011;14190;51.342;6.338;2023-04-15T00:04:44;13.95;;;6.12;;
26516;SDS011;14190;51.342;6.338;2023-04-15T00:07:12;10.18;;;5.65;;
26516;SDS011;14190;51.342;6.338;2023-04-15T00:09:40;12.78;;;7.17;;
26516;SDS011;14190;51.342;6.338;2023-04-15T00:12:10;15.10;;;7.47;;
26516;SDS011;14190;51.342;6.338;2023-04-15T00:14:37;11.20;;;7.05;;
26516;SDS011;14190;51.342;6.338;2023-04-15T00:17:05;11.40;;;6.95;;
26516;SDS011;14190;51.342;6.338;2023-04-15T00:19:32;10.90;;;6.33;;
26516;SDS011;14190;51.342;6.338;2023-04-15T00:22:00;9.03;;;6.35;;
26516;SDS011;14190;51.342;6.338;2023-04-15T00:24:27;13.50;;;6.62;;
26516;SDS011;14190;51.342;6.338;2023-04-15T00:26:56;16.30;;;6.85;;
26516;SDS011;14190;51.342;6.338;2023-04-15T00:29:25;15.03;;;7.53;;
26516;SDS011;14190;51.342;6.338;2023-04-15T00:31:54;12.53;;;6.53;;
26516;SDS011;14190;51.342;6.338;2023-04-15T00:34:22;16.20;;;8.30;;
26516;SDS011;14190;51.342;6.338;2023-04-15T00:36:50;13.85;;;7.50;;
26516;SDS011;14190;51.342;6.338;2023-04-15T00:39:17;12.55;;;6.87;;
26516;SDS011;14190;51.342;6.338;2023-04-15T00:41:46;11.97;;;6.42;;
26516;SDS011;14190;51.342;6.338;2023-04-15T00:44:14;22.02;;;7.70;;
26516;SDS011;14190;51.342;6.338;2023-04-15T00:46:43;15.18;;;7.08;;
26516;SDS011;14190;51.342;6.338;2023-04-15T00:49:11;14.28;;;7.55;;
26516;SDS011;14190;51.342;6.338;2023-04-15T00:51:39;11.80;;;7.15;;
26516;SDS011;14190;51.342;6.338;2023-04-15T00:54:08;10.15;;;6.37;;
26516;SDS011;14190;51.342;6.338;2023-04-15T00:56:36;10.75;;;6.83;;
26516;SDS011;14190;51.342;6.338;2023-04-15T00:59:04;12.73;;;6.33;;
26516;SDS011;14190;51.342;6.338;2023-04-15T01:01:33;17.77;;;7.10;;
26516;SDS011;14190;51.342;6.338;2023-04-15T01:04:00;8.95;;;6.12;;
26516;SDS011;14190;51.342;6.338;2023-04-15T01:06:29;14.20;;;6.37;;
26516;SDS011;14190;51.342;6.338;2023-04-15T01:08:58;10.03;;;6.12;;
26516;SDS011;14190;51.342;6.338;2023-04-15T01:11:25;16.05;;;7.35;;
26516;SDS011;14190;51.342;6.338;2023-04-15T01:13:53;12.37;;;8.45;;
26516;SDS011;14190;51.342;6.338;2023-04-15T01:16:22;16.27;;;8.93;;
26516;SDS011;14190;51.342;6.338;2023-04-15T01:18:50;18.23;;;8.75;;
26516;SDS011;14190;51.342;6.338;2023-04-15T01:21:18;14.68;;;9.65;;
26516;SDS011;14190;51.342;6.338;2023-04-15T01:23:46;17.35;;;8.73;;
26516;SDS011;14190;51.342;6.338;2023-04-15T01:26:13;16.30;;;7.53;;
26516;SDS011;14190;51.342;6.338;2023-04-15T01:28:44;10.13;;;7.55;;
26516;SDS011;14190;51.342;6.338;2023-04-15T01:31:12;11.93;;;7.62;;
26516;SDS011;14190;51.342;6.338;2023-04-15T01:33:40;12.75;;;7.92;;
26516;SDS011;14190;51.342;6.338;2023-04-15T01:36:08;16.40;;;7.97;;
26516;SDS011;14190;51.342;6.338;2023-04-15T01:38:36;15.18;;;7.90;;
26516;SDS011;14190;51.342;6.338;2023-04-15T01:41:04;12.05;;;7.80;;
26516;SDS011;14190;51.342;6.338;2023-04-15T01:43:35;14.23;;;7.60;;
26516;SDS011;14190;51.342;6.338;2023-04-15T01:46:03;12.93;;;8.63;;
26516;SDS011;14190;51.342;6.338;2023-04-15T01:48:31;13.85;;;8.40;;
26516;SDS011;14190;51.342;6.338;2023-04-15T01:50:59;16.30;;;9.43;;
26516;SDS011;14190;51.342;6.338;2023-04-15T01:53:26;16.90;;;9.60;;
26516;SDS011;14190;51.342;6.338;2023-04-15T01:55:54;15.30;;;9.23;;
26516;SDS011;14190;51.342;6.338;2023-04-15T01:58:22;16.07;;;10.18;;
26516;SDS011;14190;51.342;6.338;2023-04-15T02:00:50;20.25;;;10.53;;
26516;SDS011;14190;51.342;6.338;2023-04-15T02:03:17;15.03;;;10.53;;
26516;SDS011;14190;51.342;6.338;2023-04-15T02:05:44;16.50;;;9.98;;
26516;SDS011;14190;51.342;6.338;2023-04-15T02:08:12;18.42;;;9.98;;
26516;SDS011;14190;51.342;6.338;2023-04-15T02:10:39;19.48;;;9.75;;
26516;SDS011;14190;51.342;6.338;2023-04-15T02:13:07;19.40;;;10.98;;
26516;SDS011;14190;51.342;6.338;2023-04-15T02:15:34;16.73;;;10.50;;
26516;SDS011;14190;51.342;6.338;2023-04-15T02:18:03;21.05;;;11.28;;
26516;SDS011;14190;51.342;6.338;2023-04-15T02:20:30;22.25;;;11.78;;
26516;SDS011;14190;51.342;6.338;2023-04-15T02:22:58;18.48;;;10.75;;
26516;SDS011;14190;51.342;6.338;2023-04-15T02:25:25;18.35;;;11.20;;
26516;SDS011;14190;51.342;6.338;2023-04-15T02:27:52;15.78;;;10.20;;
26516;SDS011;14190;51.342;6.338;2023-04-15T02:30:21;19.07;;;11.20;;
26516;SDS011;14190;51.342;6.338;2023-04-15T02:32:49;18.57;;;10.72;;
26516;SDS011;14190;51.342;6.338;2023-04-15T02:35:17;19.45;;;11.28;;
26516;SDS011;14190;51.342;6.338;2023-04-15T02:37:45;14.05;;;10.05;;
26516;SDS011;14190;51.342;6.338;2023-04-15T02:40:12;21.68;;;10.55;;
26516;SDS011;14190;51.342;6.338;2023-04-15T02:42:40;22.60;;;11.03;;
26516;SDS011;14190;51.342;6.338;2023-04-15T02:45:11;24.77;;;11.43;;
26516;SDS011;14190;51.342;6.338;2023-04-15T02:47:39;22.48;;;10.98;;
26516;SDS011;14190;51.342;6.338;2023-04-15T02:50:07;19.17;;;11.53;;
26516;SDS011;14190;51.342;6.338;2023-04-15T02:52:35;16.05;;;10.43;;
26516;SDS011;14190;51.342;6.338;2023-04-15T02:55:03;25.48;;;11.63;;
26516;SDS011;14190;51.342;6.338;2023-04-15T02:57:30;20.10;;;11.93;;
26516;SDS011;14190;51.342;6.338;2023-04-15T02:59:59;15.70;;;11.20;;
26516;SDS011;14190;51.342;6.338;2023-04-15T03:02:32;23.55;;;12.07;;
26516;SDS011;14190;51.342;6.338;2023-04-15T03:04:57;19.52;;;11.93;;
26516;SDS011;14190;51.342;6.338;2023-04-15T03:07:24;17.98;;;11.80;;
26516;SDS011;14190;51.342;6.338;2023-04-15T03:09:52;24.07;;;12.65;;
26516;SDS011;14190;51.342;6.338;2023-04-15T03:12:19;22.07;;;13.00;;
26516;SDS011;14190;51.342;6.338;2023-04-15T03:14:47;20.08;;;12.47;;
26516;SDS011;14190;51.342;6.338;2023-04-15T03:17:15;25.02;;;13.20;;
26516;SDS011;14190;51.342;6.338;2023-04-15T03:19:43;24.92;;;13.35;;
26516;SDS011;14190;51.342;6.338;2023-04-15T03:22:11;22.00;;;13.15;;
26516;SDS011;14190;51.342;6.338;2023-04-15T03:24:39;17.65;;;12.47;;
26516;SDS011;14190;51.342;6.338;2023-04-15T03:27:06;19.62;;;13.20;;
26516;SDS011;14190;51.342;6.338;2023-04-15T03:29:34;27.00;;;13.93;;
26516;SDS011;14190;51.342;6.338;2023-04-15T03:32:02;20.65;;;12.65;;
26516;SDS011;14190;51.342;6.338;2023-04-15T03:34:31;23.38;;;13.50;;
26516;SDS011;14190;51.342;6.338;2023-04-15T03:36:59;23.57;;;14.70;;
26516;SDS011;14190;51.342;6.338;2023-04-15T03:39:26;26.27;;;14.50;;
26516;SDS011;14190;51.342;6.338;2023-04-15T03:41:53;27.25;;;14.07;;
26516;SDS011;14190;51.342;6.338;2023-04-15T03:44:21;27.82;;;14.25;;
26516;SDS011;14190;51.342;6.338;2023-04-15T03:46:49;23.02;;;14.50;;
26516;SDS011;14190;51.342;6.338;2023-04-15T03:49:16;29.85;;;15.32;;
26516;SDS011;14190;51.342;6.338;2023-04-15T03:51:44;34.48;;;17.05;;
26516;SDS011;14190;51.342;6.338;2023-04-15T03:54:12;29.18;;;16.82;;
26516;SDS011;14190;51.342;6.338;2023-04-15T03:56:40;24.85;;;15.40;;
26516;SDS011;14190;51.342;6.338;2023-04-15T03:59:08;25.92;;;16.25;;
26516;SDS011;14190;51.342;6.338;2023-04-15T04:01:35;24.25;;;15.65;;
26516;SDS011;14190;51.342;6.338;2023-04-15T04:04:02;27.87;;;16.52;;
26516;SDS011;14190;51.342;6.338;2023-04-15T04:06:30;26.75;;;16.25;;
26516;SDS011;14190;51.342;6.338;2023-04-15T04:08:57;24.30;;;16.50;;
26516;SDS011;14190;51.342;6.338;2023-04-15T04:11:25;24.35;;;16.45;;
26516;SDS011;14190;51.342;6.338;2023-04-15T04:13:53;28.60;;;16.80;;
26516;SDS011;14190;51.342;6.338;2023-04-15T04:16:22;27.58;;;17.27;;
26516;SDS011;14190;51.342;6.338;2023-04-15T04:18:50;33.10;;;18.10;;
26516;SDS011;14190;51.342;6.338;2023-04-15T04:21:17;26.07;;;18.15;;
26516;SDS011;14190;51.342;6.338;2023-04-15T04:23:45;26.93;;;18.12;;
26516;SDS011;14190;51.342;6.338;2023-04-15T04:26:12;33.45;;;18.10;;
26516;SDS011;14190;51.342;6.338;2023-04-15T04:28:40;29.63;;;18.17;;
26516;SDS011;14190;51.342;6.338;2023-04-15T04:31:07;31.48;;;17.90;;
26516;SDS011;14190;51.342;6.338;2023-04-15T04:33:35;29.77;;;18.92;;
26516;SDS011;14190;51.342;6.338;2023-04-15T04:36:02;31.37;;;17.32;;
26516;SDS011;14190;51.342;6.338;2023-04-15T04:38:29;30.23;;;18.10;;
26516;SDS011;14190;51.342;6.338;2023-04-15T04:40:57;29.57;;;19.32;;
26516;SDS011;14190;51.342;6.338;2023-04-15T04:43:24;32.55;;;17.82;;
26516;SDS011;14190;51.342;6.338;2023-04-15T04:45:52;33.35;;;18.90;;
26516;SDS011;14190;51.342;6.338;2023-04-15T04:48:20;23.50;;;16.90;;
26516;SDS011;14190;51.342;6.338;2023-04-15T04:50:48;28.27;;;17.87;;
26516;SDS011;14190;51.342;6.338;2023-04-15T04:53:15;28.27;;;18.62;;
26516;SDS011;14190;51.342;6.338;2023-04-15T04:55:43;32.38;;;17.35;;
26516;SDS011;14190;51.342;6.338;2023-04-15T04:58:11;23.12;;;16.82;;
26516;SDS011;14190;51.342;6.338;2023-04-15T05:00:39;26.02;;;18.45;;
26516;SDS011;14190;51.342;6.338;2023-04-15T05:03:06;28.32;;;17.48;;
26516;SDS011;14190;51.342;6.338;2023-04-15T05:05:33;27.77;;;17.65;;
26516;SDS011;14190;51.342;6.338;2023-04-15T05:08:02;27.17;;;18.17;;
26516;SDS011;14190;51.342;6.338;2023-04-15T05:10:29;28.45;;;18.95;;
26516;SDS011;14190;51.342;6.338;2023-04-15T05:12:57;38.80;;;17.70;;
26516;SDS011;14190;51.342;6.338;2023-04-15T05:15:24;26.82;;;17.90;;
26516;SDS011;14190;51.342;6.338;2023-04-15T05:17:52;36.03;;;17.75;;
26516;SDS011;14190;51.342;6.338;2023-04-15T05:20:19;27.60;;;17.32;;
26516;SDS011;14190;51.342;6.338;2023-04-15T05:22:47;25.80;;;18.37;;
26516;SDS011;14190;51.342;6.338;2023-04-15T05:25:14;25.30;;;16.37;;
26516;SDS011;14190;51.342;6.338;2023-04-15T05:27:42;31.45;;;17.73;;
26516;SDS011;14190;51.342;6.338;2023-04-15T05:30:09;26.35;;;17.77;;
26516;SDS011;14190;51.342;6.338;2023-04-15T05:32:37;28.80;;;17.30;;
26516;SDS011;14190;51.342;6.338;2023-04-15T05:35:04;25.68;;;17.02;;
26516;SDS011;14190;51.342;6.338;2023-04-15T05:37:33;26.97;;;16.73;;
26516;SDS011;14190;51.342;6.338;2023-04-15T05:40:00;23.32;;;16.70;;
26516;SDS011;14190;51.342;6.338;2023-04-15T05:42:29;25.90;;;16.52;;
26516;SDS011;14190;51.342;6.338;2023-04-15T05:44:57;31.35;;;18.10;;
26516;SDS011;14190;51.342;6.338;2023-04-15T05:47:24;27.65;;;16.50;;
26516;SDS011;14190;51.342;6.338;2023-04-15T05:49:51;27.17;;;16.57;;
26516;SDS011;14190;51.342;6.338;2023-04-15T05:52:19;25.90;;;17.02;;
26516;SDS011;14190;51.342;6.338;2023-04-15T05:54:46;28.92;;;17.15;;
26516;SDS011;14190;51.342;6.338;2023-04-15T05:57:14;33.02;;;17.25;;
26516;SDS011;14190;51.342;6.338;2023-04-15T05:59:41;35.38;;;17.92;;
26516;SDS011;14190;51.342;6.338;2023-04-15T06:02:10;27.10;;;16.30;;
26516;SDS011;14190;51.342;6.338;2023-04-15T06:04:37;34.18;;;16.40;;
26516;SDS011;14190;51.342;6.338;2023-04-15T06:07:04;28.87;;;16.70;;
26516;SDS011;14190;51.342;6.338;2023-04-15T06:09:32;29.07;;;18.40;;
26516;SDS011;14190;51.342;6.338;2023-04-15T06:12:00;25.48;;;16.45;;
26516;SDS011;14190;51.342;6.338;2023-04-15T06:14:27;31.77;;;19.27;;
26516;SDS011;14190;51.342;6.338;2023-04-15T06:16:54;25.30;;;17.17;;
26516;SDS011;14190;51.342;6.338;2023-04-15T06:19:22;29.20;;;18.35;;
26516;SDS011;14190;51.342;6.338;2023-04-15T06:21:50;24.67;;;17.70;;
26516;SDS011;14190;51.342;6.338;2023-04-15T06:24:17;22.87;;;16.27;;
26516;SDS011;14190;51.342;6.338;2023-04-15T06:26:45;27.62;;;18.20;;
26516;SDS011;14190;51.342;6.338;2023-04-15T06:29:12;28.98;;;18.52;;
26516;SDS011;14190;51.342;6.338;2023-04-15T06:31:39;26.87;;;16.82;;
26516;SDS011;14190;51.342;6.338;2023-04-15T06:34:07;27.02;;;16.80;;
26516;SDS011;14190;51.342;6.338;2023-04-15T06:36:37;24.55;;;17.02;;
26516;SDS011;14190;51.342;6.338;2023-04-15T06:41:31;28.85;;;17.00;;
26516;SDS011;14190;51.342;6.338;2023-04-15T06:43:59;26.07;;;17.73;;
26516;SDS011;14190;51.342;6.338;2023-04-15T06:46:27;29.55;;;17.95;;
26516;SDS011;14190;51.342;6.338;2023-04-15T06:48:54;27.67;;;18.30;;
26516;SDS011;14190;51.342;6.338;2023-04-15T06:51:22;29.10;;;18.50;;
26516;SDS011;14190;51.342;6.338;2023-04-15T06:53:49;27.55;;;18.55;;
26516;SDS011;14190;51.342;6.338;2023-04-15T06:56:17;28.17;;;19.52;;
26516;SDS011;14190;51.342;6.338;2023-04-15T06:58:44;31.60;;;18.70;;
26516;SDS011;14190;51.342;6.338;2023-04-15T07:01:12;30.80;;;19.40;;
26516;SDS011;14190;51.342;6.338;2023-04-15T07:03:40;28.65;;;19.02;;
26516;SDS011;14190;51.342;6.338;2023-04-15T07:06:07;25.55;;;18.30;;
26516;SDS011;14190;51.342;6.338;2023-04-15T07:08:35;31.33;;;19.75;;
26516;SDS011;14190;51.342;6.338;2023-04-15T07:11:03;31.17;;;18.62;;
26516;SDS011;14190;51.342;6.338;2023-04-15T07:13:31;28.65;;;19.02;;
26516;SDS011;14190;51.342;6.338;2023-04-15T07:15:58;33.48;;;19.57;;
26516;SDS011;14190;51.342;6.338;2023-04-15T07:18:25;31.65;;;19.12;;
26516;SDS011;14190;51.342;6.338;2023-04-15T07:20:53;33.85;;;19.92;;
26516;SDS011;14190;51.342;6.338;2023-04-15T07:23:21;24.20;;;17.73;;
26516;SDS011;14190;51.342;6.338;2023-04-15T07:25:48;31.95;;;20.60;;
26516;SDS011;14190;51.342;6.338;2023-04-15T07:28:17;31.48;;;20.12;;
26516;SDS011;14190;51.342;6.338;2023-04-15T07:30:44;27.27;;;19.90;;
26516;SDS011;14190;51.342;6.338;2023-04-15T07:33:12;30.45;;;19.00;;
26516;SDS011;14190;51.342;6.338;2023-04-15T07:35:39;24.55;;;18.98;;
26516;SDS011;14190;51.342;6.338;2023-04-15T07:38:07;26.15;;;15.85;;
26516;SDS011;14190;51.342;6.338;2023-04-15T07:40:34;22.98;;;15.58;;
26516;SDS011;14190;51.342;6.338;2023-04-15T07:43:01;19.20;;;13.58;;
26516;SDS011;14190;51.342;6.338;2023-04-15T07:45:29;20.62;;;14.05;;
26516;SDS011;14190;51.342;6.338;2023-04-15T07:47:56;23.30;;;15.08;;
26516;SDS011;14190;51.342;6.338;2023-04-15T07:50:24;23.85;;;13.70;;
26516;SDS011;14190;51.342;6.338;2023-04-15T07:52:51;19.85;;;12.85;;
26516;SDS011;14190;51.342;6.338;2023-04-15T07:55:19;16.87;;;12.50;;
26516;SDS011;14190;51.342;6.338;2023-04-15T07:57:48;16.40;;;12.20;;
26516;SDS011;14190;51.342;6.338;2023-04-15T08:00:16;20.32;;;12.28;;
26516;SDS011;14190;51.342;6.338;2023-04-15T08:02:44;15.60;;;11.08;;
26516;SDS011;14190;51.342;6.338;2023-04-15T08:05:12;18.55;;;11.57;;
26516;SDS011;14190;51.342;6.338;2023-04-15T08:07:40;17.10;;;11.88;;
26516;SDS011;14190;51.342;6.338;2023-04-15T08:10:07;14.50;;;11.38;;
26516;SDS011;14190;51.342;6.338;2023-04-15T08:12:36;13.90;;;10.72;;
26516;SDS011;14190;51.342;6.338;2023-04-15T08:15:04;18.35;;;11.95;;
26516;SDS011;14190;51.342;6.338;2023-04-15T08:17:33;16.42;;;11.43;;
26516;SDS011;14190;51.342;6.338;2023-04-15T08:20:02;16.97;;;11.25;;
26516;SDS011;14190;51.342;6.338;2023-04-15T08:22:31;14.98;;;10.48;;
26516;SDS011;14190;51.342;6.338;2023-04-15T08:24:58;15.28;;;10.20;;
26516;SDS011;14190;51.342;6.338;2023-04-15T08:27:25;13.95;;;9.10;;
26516;SDS011;14190;51.342;6.338;2023-04-15T08:29:53;16.85;;;10.95;;
26516;SDS011;14190;51.342;6.338;2023-04-15T08:32:20;14.75;;;10.75;;
26516;SDS011;14190;51.342;6.338;2023-04-15T08:34:48;13.15;;;9.78;;
26516;SDS011;14190;51.342;6.338;2023-04-15T08:37:15;15.45;;;10.13;;
26516;SDS011;14190;51.342;6.338;2023-04-15T08:39:42;12.98;;;9.38;;
26516;SDS011;14190;51.342;6.338;2023-04-15T08:42:11;15.20;;;8.70;;
26516;SDS011;14190;51.342;6.338;2023-04-15T08:44:39;11.22;;;8.90;;
26516;SDS011;14190;51.342;6.338;2023-04-15T08:47:07;13.65;;;8.68;;
26516;SDS011;14190;51.342;6.338;2023-04-15T08:49:36;9.85;;;8.33;;
26516;SDS011;14190;51.342;6.338;2023-04-15T08:52:04;11.80;;;8.75;;
26516;SDS011;14190;51.342;6.338;2023-04-15T08:54:32;11.38;;;8.43;;
26516;SDS011;14190;51.342;6.338;2023-04-15T08:57:00;16.87;;;8.45;;
26516;SDS011;14190;51.342;6.338;2023-04-15T08:59:29;10.82;;;8.40;;
26516;SDS011;14190;51.342;6.338;2023-04-15T09:01:57;12.53;;;8.30;;
26516;SDS011;14190;51.342;6.338;2023-04-15T09:04:24;13.75;;;8.48;;
26516;SDS011;14190;51.342;6.338;2023-04-15T09:06:52;14.10;;;8.53;;
26516;SDS011;14190;51.342;6.338;2023-04-15T09:09:19;11.45;;;8.25;;
26516;SDS011;14190;51.342;6.338;2023-04-15T09:11:47;9.50;;;7.83;;
26516;SDS011;14190;51.342;6.338;2023-04-15T09:14:19;7.22;;;6.00;;
26516;SDS011;14190;51.342;6.338;2023-04-15T09:17:01;6.47;;;4.53;;
26516;SDS011;14190;51.342;6.338;2023-04-15T09:19:25;4.53;;;4.08;;
26516;SDS011;14190;51.342;6.338;2023-04-15T09:21:53;6.20;;;4.72;;
26516;SDS011;14190;51.342;6.338;2023-04-15T09:24:22;8.90;;;4.97;;
26516;SDS011;14190;51.342;6.338;2023-04-15T09:26:53;6.37;;;4.85;;
26516;SDS011;14190;51.342;6.338;2023-04-15T09:29:25;7.85;;;6.08;;
26516;SDS011;14190;51.342;6.338;2023-04-15T09:31:52;7.12;;;5.42;;
26516;SDS011;14190;51.342;6.338;2023-04-15T09:34:20;9.48;;;6.12;;
26516;SDS011;14190;51.342;6.338;2023-04-15T09:36:52;9.95;;;6.80;;
26516;SDS011;14190;51.342;6.338;2023-04-15T09:39:19;9.25;;;6.35;;
26516;SDS011;14190;51.342;6.338;2023-04-15T09:41:52;9.23;;;6.05;;
26516;SDS011;14190;51.342;6.338;2023-04-15T09:44:25;9.80;;;5.35;;
26516;SDS011;14190;51.342;6.338;2023-04-15T09:46:52;11.35;;;5.53;;
26516;SDS011;14190;51.342;6.338;2023-04-15T09:49:19;12.33;;;7.47;;
26516;SDS011;14190;51.342;6.338;2023-04-15T09:51:47;8.75;;;6.55;;
26516;SDS011;14190;51.342;6.338;2023-04-15T09:54:18;12.60;;;6.08;;
26516;SDS011;14190;51.342;6.338;2023-04-15T09:56:44;6.72;;;5.55;;
26516;SDS011;14190;51.342;6.338;2023-04-15T09:59:11;6.25;;;4.97;;
26516;SDS011;14190;51.342;6.338;2023-04-15T10:01:39;6.60;;;5.25;;
26516;SDS011;14190;51.342;6.338;2023-04-15T10:04:07;6.67;;;4.80;;
26516;SDS011;14190;51.342;6.338;2023-04-15T10:06:34;6.25;;;4.92;;
26516;SDS011;14190;51.342;6.338;2023-04-15T10:09:02;7.55;;;4.30;;
26516;SDS011;14190;51.342;6.338;2023-04-15T10:14:15;6.47;;;5.40;;
26516;SDS011;14190;51.342;6.338;2023-04-15T10:16:43;7.12;;;5.35;;
26516;SDS011;14190;51.342;6.338;2023-04-15T10:19:13;6.65;;;5.17;;
26516;SDS011;14190;51.342;6.338;2023-04-15T10:21:42;6.20;;;5.25;;
26516;SDS011;14190;51.342;6.338;2023-04-15T10:24:10;6.85;;;4.92;;
26516;SDS011;14190;51.342;6.338;2023-04-15T10:26:37;5.20;;;4.40;;
26516;SDS011;14190;51.342;6.338;2023-04-15T10:29:05;5.65;;;4.35;;
26516;SDS011;14190;51.342;6.338;2023-04-15T10:31:33;5.75;;;4.70;;
26516;SDS011;14190;51.342;6.338;2023-04-15T10:34:01;6.40;;;5.12;;
26516;SDS011;14190;51.342;6.338;2023-04-15T10:36:31;6.28;;;5.00;;
26516;SDS011;14190;51.342;6.338;2023-04-15T10:38:58;11.48;;;5.40;;
26516;SDS011;14190;51.342;6.338;2023-04-15T10:41:27;8.30;;;5.97;;
26516;SDS011;14190;51.342;6.338;2023-04-15T10:43:59;7.90;;;5.60;;
26516;SDS011;14190;51.342;6.338;2023-04-15T10:49:11;8.38;;;5.53;;
26516;SDS011;14190;51.342;6.338;2023-04-15T10:51:37;7.62;;;5.20;;
26516;SDS011;14190;51.342;6.338;2023-04-15T10:54:13;6.28;;;5.60;;
26516;SDS011;14190;51.342;6.338;2023-04-15T10:56:42;6.37;;;5.33;;
26516;SDS011;14190;51.342;6.338;2023-04-15T10:59:09;7.20;;;6.35;;
26516;SDS011;14190;51.342;6.338;2023-04-15T11:01:59;9.85;;;6.12;;
26516;SDS011;14190;51.342;6.338;2023-04-15T11:04:06;8.10;;;5.27;;
26516;SDS011;14190;51.342;6.338;2023-04-15T11:06:45;6.08;;;5.30;;
26516;SDS011;14190;51.342;6.338;2023-04-15T11:09:31;7.00;;;6.03;;
26516;SDS011;14190;51.342;6.338;2023-04-15T11:12:08;6.22;;;5.42;;
26516;SDS011;14190;51.342;6.338;2023-04-15T11:14:39;6.83;;;4.95;;
26516;SDS011;14190;51.342;6.338;2023-04-15T11:17:08;6.47;;;5.08;;
26516;SDS011;14190;51.342;6.338;2023-04-15T11:19:37;7.10;;;5.30;;
26516;SDS011;14190;51.342;6.338;2023-04-15T11:22:08;7.58;;;5.87;;
26516;SDS011;14190;51.342;6.338;2023-04-15T11:24:36;12.33;;;5.37;;
26516;SDS011;14190;51.342;6.338;2023-04-15T11:27:05;13.98;;;5.20;;
26516;SDS011;14190;51.342;6.338;2023-04-15T11:29:32;7.12;;;5.15;;
26516;SDS011;14190;51.342;6.338;2023-04-15T11:32:07;5.58;;;4.45;;
26516;SDS011;14190;51.342;6.338;2023-04-15T11:34:34;9.43;;;5.00;;
26516;SDS011;14190;51.342;6.338;2023-04-15T11:37:05;6.10;;;4.22;;
26516;SDS011;14190;51.342;6.338;2023-04-15T11:39:33;6.55;;;4.28;;
26516;SDS011;14190;51.342;6.338;2023-04-15T11:42:00;16.87;;;4.60;;
26516;SDS011;14190;51.342;6.338;2023-04-15T11:44:28;6.85;;;5.30;;
26516;SDS011;14190;51.342;6.338;2023-04-15T11:46:55;14.23;;;4.95;;
26516;SDS011;14190;51.342;6.338;2023-04-15T11:49:27;9.13;;;4.97;;
26516;SDS011;14190;51.342;6.338;2023-04-15T11:51:54;8.88;;;4.25;;
26516;SDS011;14190;51.342;6.338;2023-04-15T11:54:22;9.38;;;4.78;;
26516;SDS011;14190;51.342;6.338;2023-04-15T11:56:49;10.32;;;4.62;;
26516;SDS011;14190;51.342;6.338;2023-04-15T11:59:19;4.95;;;3.92;;
26516;SDS011;14190;51.342;6.338;2023-04-15T12:01:46;7.53;;;4.42;;
26516;SDS011;14190;51.342;6.338;2023-04-15T12:04:14;6.65;;;5.17;;
26516;SDS011;14190;51.342;6.338;2023-04-15T12:06:47;4.25;;;3.83;;
26516;SDS011;14190;51.342;6.338;2023-04-15T12:09:15;7.53;;;4.62;;
26516;SDS011;14190;51.342;6.338;2023-04-15T12:11:49;5.62;;;3.98;;
26516;SDS011;14190;51.342;6.338;2023-04-15T12:14:25;8.03;;;4.80;;
26516;SDS011;14190;51.342;6.338;2023-04-15T12:16:54;6.12;;;4.28;;
26516;SDS011;14190;51.342;6.338;2023-04-15T12:21:59;5.85;;;4.15;;
26516;SDS011;14190;51.342;6.338;2023-04-15T12:24:26;6.05;;;3.60;;
26516;SDS011;14190;51.342;6.338;2023-04-15T12:26:54;6.83;;;4.15;;
26516;SDS011;14190;51.342;6.338;2023-04-15T12:29:30;21.55;;;6.05;;
26516;SDS011;14190;51.342;6.338;2023-04-15T12:32:13;7.85;;;5.00;;
26516;SDS011;14190;51.342;6.338;2023-04-15T12:34:30;7.33;;;4.45;;
26516;SDS011;14190;51.342;6.338;2023-04-15T12:36:56;9.83;;;5.47;;
26516;SDS011;14190;51.342;6.338;2023-04-15T12:39:24;5.22;;;4.55;;
26516;SDS011;14190;51.342;6.338;2023-04-15T12:41:52;6.37;;;4.78;;
26516;SDS011;14190;51.342;6.338;2023-04-15T12:44:21;9.85;;;4.85;;
26516;SDS011;14190;51.342;6.338;2023-04-15T12:46:49;5.05;;;4.00;;
26516;SDS011;14190;51.342;6.338;2023-04-15T12:49:19;7.85;;;4.30;;
26516;SDS011;14190;51.342;6.338;2023-04-15T12:51:47;5.65;;;4.42;;
26516;SDS011;14190;51.342;6.338;2023-04-15T12:54:16;5.90;;;4.20;;
26516;SDS011;14190;51.342;6.338;2023-04-15T12:56:44;5.20;;;3.12;;
26516;SDS011;14190;51.342;6.338;2023-04-15T12:59:12;3.75;;;2.90;;
26516;SDS011;14190;51.342;6.338;2023-04-15T13:01:39;4.75;;;2.70;;
26516;SDS011;14190;51.342;6.338;2023-04-15T13:04:07;5.62;;;3.12;;
26516;SDS011;14190;51.342;6.338;2023-04-15T13:06:34;4.50;;;3.27;;
26516;SDS011;14190;51.342;6.338;2023-04-15T13:09:02;15.95;;;4.03;;
26516;SDS011;14190;51.342;6.338;2023-04-15T13:11:29;4.30;;;3.47;;
26516;SDS011;14190;51.342;6.338;2023-04-15T13:14:07;4.53;;;3.62;;
26516;SDS011;14190;51.342;6.338;2023-04-15T13:16:30;4.65;;;3.20;;
26516;SDS011;14190;51.342;6.338;2023-04-15T13:18:58;5.40;;;4.08;;
26516;SDS011;14190;51.342;6.338;2023-04-15T13:21:26;6.70;;;4.67;;
26516;SDS011;14190;51.342;6.338;2023-04-15T13:23:54;5.70;;;4.33;;
26516;SDS011;14190;51.342;6.338;2023-04-15T13:26:21;8.83;;;5.42;;
26516;SDS011;14190;51.342;6.338;2023-04-15T13:28:49;7.92;;;4.00;;
26516;SDS011;14190;51.342;6.338;2023-04-15T13:31:16;5.97;;;4.62;;
26516;SDS011;14190;51.342;6.338;2023-04-15T13:33:43;10.72;;;4.05;;
26516;SDS011;14190;51.342;6.338;2023-04-15T13:36:11;5.83;;;4.15;;
26516;SDS011;14190;51.342;6.338;2023-04-15T13:38:38;5.72;;;4.28;;
26516;SDS011;14190;51.342;6.338;2023-04-15T13:41:06;10.40;;;5.17;;
26516;SDS011;14190;51.342;6.338;2023-04-15T13:43:33;9.10;;;4.53;;
26516;SDS011;14190;51.342;6.338;2023-04-15T13:46:01;8.55;;;4.87;;
26516;SDS011;14190;51.342;6.338;2023-04-15T13:48:28;6.67;;;4.30;;
26516;SDS011;14190;51.342;6.338;2023-04-15T13:50:55;5.45;;;4.45;;
26516;SDS011;14190;51.342;6.338;2023-04-15T13:53:23;5.50;;;4.28;;
26516;SDS011;14190;51.342;6.338;2023-04-15T13:55:50;5.72;;;4.12;;
26516;SDS011;14190;51.342;6.338;2023-04-15T13:58:18;5.22;;;4.03;;
26516;SDS011;14190;51.342;6.338;2023-04-15T14:00:45;4.92;;;3.52;;
26516;SDS011;14190;51.342;6.338;2023-04-15T14:03:13;6.20;;;3.20;;
26516;SDS011;14190;51.342;6.338;2023-04-15T14:05:40;6.15;;;3.45;;
26516;SDS011;14190;51.342;6.338;2023-04-15T14:08:07;4.67;;;3.33;;
26516;SDS011;14190;51.342;6.338;2023-04-15T14:10:35;5.92;;;3.45;;
26516;SDS011;14190;51.342;6.338;2023-04-15T14:13:02;4.15;;;3.47;;
26516;SDS011;14190;51.342;6.338;2023-04-15T14:15:30;4.22;;;3.55;;
26516;SDS011;14190;51.342;6.338;2023-04-15T14:17:58;5.08;;;2.95;;
26516;SDS011;14190;51.342;6.338;2023-04-15T14:20:25;5.20;;;3.62;;
26516;SDS011;14190;51.342;6.338;2023-04-15T14:22:53;5.15;;;3.35;;
26516;SDS011;14190;51.342;6.338;2023-04-15T14:25:20;3.33;;;2.55;;
26516;SDS011;14190;51.342;6.338;2023-04-15T14:27:47;34.85;;;18.07;;
26516;SDS011;14190;51.342;6.338;2023-04-15T14:30:15;5.55;;;3.33;;
26516;SDS011;14190;51.342;6.338;2023-04-15T14:32:42;4.92;;;2.55;;
26516;SDS011;14190;51.342;6.338;2023-04-15T14:35:10;5.67;;;3.08;;
26516;SDS011;14190;51.342;6.338;2023-04-15T14:37:37;6.15;;;3.42;;
26516;SDS011;14190;51.342;6.338;2023-04-15T14:40:05;4.22;;;2.83;;
26516;SDS011;14190;51.342;6.338;2023-04-15T14:42:32;5.75;;;2.98;;
26516;SDS011;14190;51.342;6.338;2023-04-15T14:44:59;5.42;;;2.75;;
26516;SDS011;14190;51.342;6.338;2023-04-15T14:47:27;4.42;;;2.50;;
26516;SDS011;14190;51.342;6.338;2023-04-15T14:49:54;4.85;;;2.60;;